sensor_id;sensor_type;location;lat;lon;timestamp;pressure;altitude;pressure_sealevel;temperature;humidity
18850;BME280;4989;48.772;9.154;2023-05-10T00:04:15;97367.22;;;16.89;100.00
18850;BME280;4989;48.772;9.154;2023-05-10T00:09:17;97368.97;;;16.72;100.00
18850;BME280;4989;48.772;9.154;2023-05-10T00:14:19;97377.78;;;16.97;100.00
18850;BME280;4989;48.772;9.154;2023-05-10T00:19:22;97369.44;;;17.06;100.00
18850;BME280;4989;48.772;9.154;2023-05-10T00:24:24;97357.28;;;16.57;100.00
18850;BME280;4989;48.772;9.154;2023-05-10T00:29:27;97360.78;;;16.42;100.00
18850;BME280;4989;48.772;9.154;2023-05-10T00:34:30;97358.13;;;16.13;100.00
18850;BME280;4989;48.772;9.154;2023-05-10T00:39:32;97359.22;;;16.36;100.00
18850;BME280;4989;48.772;9.154;2023-05-10T00:44:34;97363.22;;;15.75;100.00
18850;BME280;4989;48.772;9.154;2023-05-10T00:49:37;97375.88;;;15.88;100.00
18850;BME280;4989;48.772;9.154;2023-05-10T00:54:39;97378.50;;;16.41;100.00
18850;BME280;4989;48.772;9.154;2023-05-10T00:59:42;97383.44;;;16.08;100.00
18850;BME280;4989;48.772;9.154;2023-05-10T01:04:44;97383.44;;;16.37;100.00
18850;BME280;4989;48.772;9.154;2023-05-10T01:09:47;97392.66;;;16.55;100.00
18850;BME280;4989;48.772;9.154;2023-05-10T01:14:50;97400.72;;;16.58;100.00
18850;BME280;4989;48.772;9.154;2023-05-10T01:19:52;97394.41;;;16.22;100.00
18850;BME280;4989;48.772;9.154;2023-05-10T01:36:45;97410.03;;;15.63;100.00
18850;BME280;4989;48.772;9.154;2023-05-10T01:42:08;97411.25;;;15.23;100.00
18850;BME280;4989;48.772;9.154;2023-05-10T01:52:32;97426.25;;;15.51;100.00
18850;BME280;4989;48.772;9.154;2023-05-10T01:57:37;97416.97;;;15.34;100.00
18850;BME280;4989;48.772;9.154;2023-05-10T02:02:49;97432.91;;;15.11;100.00
18850;BME280;4989;48.772;9.154;2023-05-10T02:07:52;97434.88;;;14.87;100.00
18850;BME280;4989;48.772;9.154;2023-05-10T02:12:59;97424.59;;;14.73;100.00
18850;BME280;4989;48.772;9.154;2023-05-10T02:18:03;97427.19;;;14.67;100.00
18850;BME280;4989;48.772;9.154;2023-05-10T02:23:09;97440.03;;;14.85;100.00
18850;BME280;4989;48.772;9.154;2023-05-10T02:28:14;97445.19;;;14.50;100.00
18850;BME280;4989;48.772;9.154;2023-05-10T02:33:19;97454.72;;;14.63;100.00
18850;BME280;4989;48.772;9.154;2023-05-10T02:38:25;97459.53;;;14.26;100.00
18850;BME280;4989;48.772;9.154;2023-05-10T02:43:32;97465.44;;;14.15;100.00
18850;BME280;4989;48.772;9.154;2023-05-10T02:48:35;97471.22;;;14.17;100.00
18850;BME280;4989;48.772;9.154;2023-05-10T02:53:40;97462.44;;;14.13;100.00
18850;BME280;4989;48.772;9.154;2023-05-10T02:58:43;97465.91;;;14.23;100.00
18850;BME280;4989;48.772;9.154;2023-05-10T03:03:45;97461.81;;;14.00;100.00
18850;BME280;4989;48.772;9.154;2023-05-10T03:08:47;97464.53;;;14.09;100.00
18850;BME280;4989;48.772;9.154;2023-05-10T03:14:10;97468.81;;;14.10;100.00
18850;BME280;4989;48.772;9.154;2023-05-10T03:19:58;97476.03;;;14.41;100.00
18850;BME280;4989;48.772;9.154;2023-05-10T03:25:07;97476.69;;;14.78;100.00
18850;BME280;4989;48.772;9.154;2023-05-10T03:30:14;97474.94;;;14.99;100.00
18850;BME280;4989;48.772;9.154;2023-05-10T03:35:16;97478.06;;;14.83;100.00
18850;BME280;4989;48.772;9.154;2023-05-10T03:40:19;97483.56;;;15.40;100.00
18850;BME280;4989;48.772;9.154;2023-05-10T03:45:21;97491.69;;;15.25;100.00
18850;BME280;4989;48.772;9.154;2023-05-10T03:50:24;97481.69;;;15.46;100.00
18850;BME280;4989;48.772;9.154;2023-05-10T03:55:28;97482.69;;;15.25;100.00
18850;BME280;4989;48.772;9.154;2023-05-10T04:00:31;97495.94;;;14.41;100.00
18850;BME280;4989;48.772;9.154;2023-05-10T04:05:36;97488.56;;;14.05;100.00
18850;BME280;4989;48.772;9.154;2023-05-10T04:10:38;97493.41;;;14.10;100.00
18850;BME280;4989;48.772;9.154;2023-05-10T04:15:40;97491.56;;;14.26;100.00
18850;BME280;4989;48.772;9.154;2023-05-10T04:20:43;97488.84;;;14.07;100.00
18850;BME280;4989;48.772;9.154;2023-05-10T04:25:45;97499.91;;;14.04;100.00
18850;BME280;4989;48.772;9.154;2023-05-10T04:30:47;97501.00;;;13.88;100.00
18850;BME280;4989;48.772;9.154;2023-05-10T04:35:49;97494.47;;;13.94;100.00
18850;BME280;4989;48.772;9.154;2023-05-10T04:40:52;97499.47;;;14.05;100.00
18850;BME280;4989;48.772;9.154;2023-05-10T04:45:56;97503.72;;;14.15;100.00
18850;BME280;4989;48.772;9.154;2023-05-10T04:50:59;97509.81;;;14.01;100.00
18850;BME280;4989;48.772;9.154;2023-05-10T04:56:01;97511.63;;;14.13;100.00
18850;BME280;4989;48.772;9.154;2023-05-10T05:01:07;97513.44;;;14.26;100.00
18850;BME280;4989;48.772;9.154;2023-05-10T05:06:12;97522.81;;;14.34;100.00
18850;BME280;4989;48.772;9.154;2023-05-10T05:11:15;97510.94;;;14.46;100.00
18850;BME280;4989;48.772;9.154;2023-05-10T05:16:17;97513.94;;;14.76;100.00
18850;BME280;4989;48.772;9.154;2023-05-10T05:21:20;97529.34;;;15.06;100.00
18850;BME280;4989;48.772;9.154;2023-05-10T05:26:23;97532.28;;;15.27;100.00
18850;BME280;4989;48.772;9.154;2023-05-10T05:31:25;97538.19;;;15.34;100.00
18850;BME280;4989;48.772;9.154;2023-05-10T05:36:28;97540.34;;;15.54;100.00
18850;BME280;4989;48.772;9.154;2023-05-10T05:41:30;97544.25;;;15.05;100.00
18850;BME280;4989;48.772;9.154;2023-05-10T05:46:32;97542.09;;;14.67;100.00
18850;BME280;4989;48.772;9.154;2023-05-10T05:51:34;97553.31;;;14.78;100.00
18850;BME280;4989;48.772;9.154;2023-05-10T05:56:37;97552.22;;;14.85;100.00
18850;BME280;4989;48.772;9.154;2023-05-10T06:01:40;97556.53;;;14.68;100.00
18850;BME280;4989;48.772;9.154;2023-05-10T06:06:42;97556.56;;;14.58;100.00
18850;BME280;4989;48.772;9.154;2023-05-10T06:11:44;97561.38;;;14.73;100.00
18850;BME280;4989;48.772;9.154;2023-05-10T06:16:46;97573.06;;;14.73;100.00
18850;BME280;4989;48.772;9.154;2023-05-10T06:21:48;97578.25;;;14.71;100.00
18850;BME280;4989;48.772;9.154;2023-05-10T06:26:54;97575.09;;;14.54;100.00
18850;BME280;4989;48.772;9.154;2023-05-10T06:31:56;97574.16;;;14.66;100.00
18850;BME280;4989;48.772;9.154;2023-05-10T06:36:59;97576.13;;;14.75;100.00
18850;BME280;4989;48.772;9.154;2023-05-10T06:42:01;97580.72;;;14.60;100.00
18850;BME280;4989;48.772;9.154;2023-05-10T06:47:09;97586.94;;;14.51;100.00
18850;BME280;4989;48.772;9.154;2023-05-10T06:52:11;97582.97;;;14.71;100.00
18850;BME280;4989;48.772;9.154;2023-05-10T06:57:14;97589.97;;;14.44;100.00
18850;BME280;4989;48.772;9.154;2023-05-10T07:02:41;97584.19;;;14.33;100.00
18850;BME280;4989;48.772;9.154;2023-05-10T07:07:44;97584.22;;;14.51;100.00
18850;BME280;4989;48.772;9.154;2023-05-10T07:12:46;97593.59;;;14.78;100.00
18850;BME280;4989;48.772;9.154;2023-05-10T07:17:48;97593.53;;;15.05;100.00
18850;BME280;4989;48.772;9.154;2023-05-10T07:22:51;97591.28;;;15.37;100.00
18850;BME280;4989;48.772;9.154;2023-05-10T07:27:53;97590.72;;;15.24;100.00
18850;BME280;4989;48.772;9.154;2023-05-10T07:32:56;97586.69;;;15.43;100.00
18850;BME280;4989;48.772;9.154;2023-05-10T07:37:58;97599.09;;;15.87;100.00
18850;BME280;4989;48.772;9.154;2023-05-10T07:43:00;97601.13;;;15.44;100.00
18850;BME280;4989;48.772;9.154;2023-05-10T07:48:03;97597.75;;;15.49;100.00
18850;BME280;4989;48.772;9.154;2023-05-10T07:53:05;97611.00;;;15.50;100.00
18850;BME280;4989;48.772;9.154;2023-05-10T07:58:08;97611.84;;;15.66;100.00
18850;BME280;4989;48.772;9.154;2023-05-10T08:03:10;97613.63;;;16.26;100.00
18850;BME280;4989;48.772;9.154;2023-05-10T08:08:13;97619.84;;;16.26;100.00
18850;BME280;4989;48.772;9.154;2023-05-10T08:13:15;97612.75;;;16.20;100.00
18850;BME280;4989;48.772;9.154;2023-05-10T08:18:17;97614.06;;;16.00;100.00
18850;BME280;4989;48.772;9.154;2023-05-10T08:23:22;97620.72;;;16.09;100.00
18850;BME280;4989;48.772;9.154;2023-05-10T08:28:25;97622.59;;;16.02;100.00
18850;BME280;4989;48.772;9.154;2023-05-10T08:33:27;97624.94;;;16.19;100.00
18850;BME280;4989;48.772;9.154;2023-05-10T08:38:30;97637.66;;;16.31;100.00
18850;BME280;4989;48.772;9.154;2023-05-10T08:43:32;97622.97;;;17.32;100.00
18850;BME280;4989;48.772;9.154;2023-05-10T08:48:38;97634.66;;;16.98;100.00
18850;BME280;4989;48.772;9.154;2023-05-10T08:53:41;97634.06;;;17.23;100.00
18850;BME280;4989;48.772;9.154;2023-05-10T08:58:43;97640.25;;;16.88;100.00
18850;BME280;4989;48.772;9.154;2023-05-10T09:03:46;97644.13;;;16.58;100.00
18850;BME280;4989;48.772;9.154;2023-05-10T09:08:50;97646.84;;;16.97;100.00
18850;BME280;4989;48.772;9.154;2023-05-10T09:13:53;97652.53;;;16.93;100.00
18850;BME280;4989;48.772;9.154;2023-05-10T09:18:56;97647.16;;;16.99;100.00
18850;BME280;4989;48.772;9.154;2023-05-10T09:24:06;97666.75;;;17.21;100.00
18850;BME280;4989;48.772;9.154;2023-05-10T09:29:08;97662.19;;;16.49;100.00
18850;BME280;4989;48.772;9.154;2023-05-10T09:34:11;97655.22;;;16.63;100.00
18850;BME280;4989;48.772;9.154;2023-05-10T09:39:13;97669.00;;;16.78;100.00
18850;BME280;4989;48.772;9.154;2023-05-10T09:44:17;97659.94;;;17.31;100.00
18850;BME280;4989;48.772;9.154;2023-05-10T09:49:21;97659.41;;;18.13;100.00
18850;BME280;4989;48.772;9.154;2023-05-10T09:54:24;97664.28;;;18.64;89.83
18850;BME280;4989;48.772;9.154;2023-05-10T09:59:28;97658.41;;;19.03;100.00
18850;BME280;4989;48.772;9.154;2023-05-10T10:04:30;97658.31;;;18.92;87.54
18850;BME280;4989;48.772;9.154;2023-05-10T10:09:34;97657.81;;;19.83;97.89
18850;BME280;4989;48.772;9.154;2023-05-10T10:14:37;97663.91;;;20.47;95.97
18850;BME280;4989;48.772;9.154;2023-05-10T10:19:40;97663.16;;;20.46;94.99
18850;BME280;4989;48.772;9.154;2023-05-10T10:24:43;97653.19;;;20.66;92.14
18850;BME280;4989;48.772;9.154;2023-05-10T10:30:04;97654.09;;;20.40;85.63
18850;BME280;4989;48.772;9.154;2023-05-10T10:35:09;97652.19;;;20.09;91.36
18850;BME280;4989;48.772;9.154;2023-05-10T10:40:32;97653.97;;;19.11;80.81
18850;BME280;4989;48.772;9.154;2023-05-10T10:45:39;97653.03;;;19.46;97.32
18850;BME280;4989;48.772;9.154;2023-05-10T10:50:45;97652.03;;;19.17;100.00
18850;BME280;4989;48.772;9.154;2023-05-10T10:55:48;97669.25;;;19.38;84.24
18850;BME280;4989;48.772;9.154;2023-05-10T11:01:17;97673.50;;;19.08;98.50
18850;BME280;4989;48.772;9.154;2023-05-10T11:06:29;97673.59;;;19.19;100.00
18850;BME280;4989;48.772;9.154;2023-05-10T11:11:35;97689.78;;;19.37;100.00
18850;BME280;4989;48.772;9.154;2023-05-10T11:16:43;97686.53;;;19.65;100.00
18850;BME280;4989;48.772;9.154;2023-05-10T11:22:12;97683.25;;;18.62;86.40
18850;BME280;4989;48.772;9.154;2023-05-10T11:27:18;97679.28;;;18.43;93.30
18850;BME280;4989;48.772;9.154;2023-05-10T11:32:22;97677.63;;;18.10;81.24
18850;BME280;4989;48.772;9.154;2023-05-10T11:37:28;97689.97;;;17.50;84.93
18850;BME280;4989;48.772;9.154;2023-05-10T11:42:34;97686.16;;;17.47;85.87
18850;BME280;4989;48.772;9.154;2023-05-10T11:47:36;97697.16;;;18.33;100.00
18850;BME280;4989;48.772;9.154;2023-05-10T11:52:39;97693.16;;;18.54;97.85
18850;BME280;4989;48.772;9.154;2023-05-10T11:57:41;97698.09;;;18.09;83.54
18850;BME280;4989;48.772;9.154;2023-05-10T12:02:46;97704.25;;;17.69;83.72
18850;BME280;4989;48.772;9.154;2023-05-10T12:07:49;97709.94;;;17.35;85.83
18850;BME280;4989;48.772;9.154;2023-05-10T12:12:52;97720.19;;;17.50;84.81
18850;BME280;4989;48.772;9.154;2023-05-10T12:17:56;97714.91;;;18.72;85.09
18850;BME280;4989;48.772;9.154;2023-05-10T12:22:59;97717.88;;;19.67;94.96
18850;BME280;4989;48.772;9.154;2023-05-10T12:28:07;97719.91;;;19.41;93.59
18850;BME280;4989;48.772;9.154;2023-05-10T12:33:12;97722.72;;;18.18;94.83
18850;BME280;4989;48.772;9.154;2023-05-10T12:43:27;97720.00;;;18.39;76.79
18850;BME280;4989;48.772;9.154;2023-05-10T12:48:30;97720.75;;;19.27;80.56
18850;BME280;4989;48.772;9.154;2023-05-10T12:53:33;97720.00;;;18.39;100.00
18850;BME280;4989;48.772;9.154;2023-05-10T12:58:35;97722.84;;;18.65;93.63
18850;BME280;4989;48.772;9.154;2023-05-10T13:03:37;97724.75;;;18.38;80.04
18850;BME280;4989;48.772;9.154;2023-05-10T13:08:40;97725.44;;;18.13;79.34
18850;BME280;4989;48.772;9.154;2023-05-10T13:13:42;97715.72;;;17.67;79.14
18850;BME280;4989;48.772;9.154;2023-05-10T13:18:44;97717.53;;;17.70;81.73
18850;BME280;4989;48.772;9.154;2023-05-10T13:23:47;97716.69;;;17.64;77.63
18850;BME280;4989;48.772;9.154;2023-05-10T13:28:49;97717.69;;;18.52;79.74
18850;BME280;4989;48.772;9.154;2023-05-10T13:33:53;97720.56;;;18.43;80.03
18850;BME280;4989;48.772;9.154;2023-05-10T13:38:56;97713.25;;;18.19;85.76
18850;BME280;4989;48.772;9.154;2023-05-10T13:43:58;97707.75;;;19.01;93.35
18850;BME280;4989;48.772;9.154;2023-05-10T13:49:00;97703.31;;;19.35;85.09
18850;BME280;4989;48.772;9.154;2023-05-10T13:54:03;97708.81;;;19.35;87.45
18850;BME280;4989;48.772;9.154;2023-05-10T13:59:05;97697.59;;;19.13;85.43
18850;BME280;4989;48.772;9.154;2023-05-10T14:04:08;97698.03;;;19.95;79.01
18850;BME280;4989;48.772;9.154;2023-05-10T14:09:12;97696.84;;;20.07;78.24
18850;BME280;4989;48.772;9.154;2023-05-10T14:14:14;97697.94;;;20.27;81.20
18850;BME280;4989;48.772;9.154;2023-05-10T14:19:20;97689.53;;;20.04;72.50
18850;BME280;4989;48.772;9.154;2023-05-10T14:24:22;97693.84;;;18.90;67.63
18850;BME280;4989;48.772;9.154;2023-05-10T14:29:24;97691.34;;;19.44;92.95
18850;BME280;4989;48.772;9.154;2023-05-10T14:34:27;97690.66;;;19.49;75.87
18850;BME280;4989;48.772;9.154;2023-05-10T14:39:29;97694.59;;;20.11;85.08
18850;BME280;4989;48.772;9.154;2023-05-10T14:44:32;97690.59;;;20.12;71.58
18850;BME280;4989;48.772;9.154;2023-05-10T14:49:34;97690.22;;;20.42;77.96
18850;BME280;4989;48.772;9.154;2023-05-10T14:54:36;97699.00;;;19.92;70.21
18850;BME280;4989;48.772;9.154;2023-05-10T14:59:38;97686.09;;;20.21;64.32
18850;BME280;4989;48.772;9.154;2023-05-10T15:04:41;97689.16;;;20.28;77.88
18850;BME280;4989;48.772;9.154;2023-05-10T15:09:44;97686.78;;;19.09;67.80
18850;BME280;4989;48.772;9.154;2023-05-10T15:14:47;97676.09;;;19.80;92.45
18850;BME280;4989;48.772;9.154;2023-05-10T15:19:49;97679.59;;;20.24;84.52
18850;BME280;4989;48.772;9.154;2023-05-10T15:24:52;97684.88;;;20.22;87.55
18850;BME280;4989;48.772;9.154;2023-05-10T15:29:54;97693.22;;;19.58;77.13
18850;BME280;4989;48.772;9.154;2023-05-10T15:34:57;97682.91;;;19.85;77.61
18850;BME280;4989;48.772;9.154;2023-05-10T15:39:59;97694.38;;;19.78;71.79
18850;BME280;4989;48.772;9.154;2023-05-10T15:45:06;97699.00;;;19.29;67.05
18850;BME280;4989;48.772;9.154;2023-05-10T15:50:09;97694.78;;;19.07;83.38
18850;BME280;4989;48.772;9.154;2023-05-10T15:55:12;97704.53;;;19.92;85.98
18850;BME280;4989;48.772;9.154;2023-05-10T16:00:15;97703.97;;;20.25;86.54
18850;BME280;4989;48.772;9.154;2023-05-10T16:05:18;97704.56;;;20.46;78.27
18850;BME280;4989;48.772;9.154;2023-05-10T16:10:21;97712.84;;;19.98;61.43
18850;BME280;4989;48.772;9.154;2023-05-10T16:15:23;97713.00;;;19.83;75.63
18850;BME280;4989;48.772;9.154;2023-05-10T16:20:26;97712.34;;;19.99;82.18
18850;BME280;4989;48.772;9.154;2023-05-10T16:25:28;97716.06;;;19.96;64.57
18850;BME280;4989;48.772;9.154;2023-05-10T16:30:30;97718.34;;;19.34;66.27
18850;BME280;4989;48.772;9.154;2023-05-10T16:35:33;97721.00;;;18.76;65.36
18850;BME280;4989;48.772;9.154;2023-05-10T16:40:35;97719.75;;;18.37;75.61
18850;BME280;4989;48.772;9.154;2023-05-10T16:45:37;97716.41;;;18.33;69.71
18850;BME280;4989;48.772;9.154;2023-05-10T16:50:43;97724.88;;;17.94;67.62
18850;BME280;4989;48.772;9.154;2023-05-10T16:55:45;97730.47;;;18.35;78.23
18850;BME280;4989;48.772;9.154;2023-05-10T17:00:48;97726.19;;;18.13;68.96
18850;BME280;4989;48.772;9.154;2023-05-10T17:05:50;97729.88;;;18.10;70.07
18850;BME280;4989;48.772;9.154;2023-05-10T17:10:52;97732.06;;;18.06;72.39
18850;BME280;4989;48.772;9.154;2023-05-10T17:15:55;97736.13;;;18.46;72.65
18850;BME280;4989;48.772;9.154;2023-05-10T17:20:57;97740.56;;;18.23;68.89
18850;BME280;4989;48.772;9.154;2023-05-10T17:26:03;97732.69;;;17.80;76.28
18850;BME280;4989;48.772;9.154;2023-05-10T17:31:06;97743.47;;;17.10;81.97
18850;BME280;4989;48.772;9.154;2023-05-10T17:36:08;97749.03;;;17.01;82.13
18850;BME280;4989;48.772;9.154;2023-05-10T17:41:10;97750.88;;;16.56;82.53
18850;BME280;4989;48.772;9.154;2023-05-10T17:46:13;97744.97;;;16.48;85.99
18850;BME280;4989;48.772;9.154;2023-05-10T17:51:15;97756.19;;;16.35;85.08
18850;BME280;4989;48.772;9.154;2023-05-10T17:56:17;97757.97;;;16.14;85.39
18850;BME280;4989;48.772;9.154;2023-05-10T18:01:19;97755.47;;;16.49;83.60
18850;BME280;4989;48.772;9.154;2023-05-10T18:06:22;97770.66;;;16.36;82.67
18850;BME280;4989;48.772;9.154;2023-05-10T18:11:24;97765.25;;;16.17;81.99
18850;BME280;4989;48.772;9.154;2023-05-10T18:16:27;97765.72;;;16.16;82.87
18850;BME280;4989;48.772;9.154;2023-05-10T18:21:29;97762.91;;;16.01;83.04
18850;BME280;4989;48.772;9.154;2023-05-10T18:26:32;97775.63;;;15.80;83.03
18850;BME280;4989;48.772;9.154;2023-05-10T18:31:34;97770.75;;;15.66;85.32
18850;BME280;4989;48.772;9.154;2023-05-10T18:36:37;97772.91;;;15.52;87.24
18850;BME280;4989;48.772;9.154;2023-05-10T18:41:39;97777.22;;;15.26;95.91
18850;BME280;4989;48.772;9.154;2023-05-10T18:46:41;97771.44;;;15.05;100.00
18850;BME280;4989;48.772;9.154;2023-05-10T18:51:44;97772.34;;;14.93;100.00
18850;BME280;4989;48.772;9.154;2023-05-10T18:56:48;97784.66;;;14.79;100.00
18850;BME280;4989;48.772;9.154;2023-05-10T19:01:50;97783.59;;;14.68;100.00
18850;BME280;4989;48.772;9.154;2023-05-10T19:06:55;97790.25;;;14.57;100.00
18850;BME280;4989;48.772;9.154;2023-05-10T19:11:58;97787.06;;;14.59;100.00
18850;BME280;4989;48.772;9.154;2023-05-10T19:17:00;97790.88;;;14.61;100.00
18850;BME280;4989;48.772;9.154;2023-05-10T19:22:03;97789.97;;;14.64;100.00
18850;BME280;4989;48.772;9.154;2023-05-10T19:27:05;97793.94;;;14.82;100.00
18850;BME280;4989;48.772;9.154;2023-05-10T19:32:08;97793.34;;;14.96;100.00
18850;BME280;4989;48.772;9.154;2023-05-10T19:37:10;97803.38;;;14.99;100.00
18850;BME280;4989;48.772;9.154;2023-05-10T19:42:13;97805.50;;;14.95;100.00
18850;BME280;4989;48.772;9.154;2023-05-10T19:47:15;97796.06;;;14.87;100.00
18850;BME280;4989;48.772;9.154;2023-05-10T19:52:17;97807.34;;;14.98;100.00
18850;BME280;4989;48.772;9.154;2023-05-10T19:57:19;97803.53;;;15.23;100.00
18850;BME280;4989;48.772;9.154;2023-05-10T20:02:22;97802.63;;;15.26;100.00
18850;BME280;4989;48.772;9.154;2023-05-10T20:07:24;97800.47;;;15.40;100.00
18850;BME280;4989;48.772;9.154;2023-05-10T20:12:27;97793.22;;;15.88;99.09
18850;BME280;4989;48.772;9.154;2023-05-10T20:17:29;97808.72;;;16.00;97.47
18850;BME280;4989;48.772;9.154;2023-05-10T20:22:32;97803.34;;;15.54;98.79
18850;BME280;4989;48.772;9.154;2023-05-10T20:27:34;97807.63;;;15.46;100.00
18850;BME280;4989;48.772;9.154;2023-05-10T20:32:37;97799.13;;;15.26;99.58
18850;BME280;4989;48.772;9.154;2023-05-10T20:37:39;97799.09;;;14.80;100.00
18850;BME280;4989;48.772;9.154;2023-05-10T20:42:41;97808.03;;;14.62;100.00
18850;BME280;4989;48.772;9.154;2023-05-10T20:47:44;97808.03;;;14.53;100.00
18850;BME280;4989;48.772;9.154;2023-05-10T20:52:46;97799.63;;;14.47;100.00
18850;BME280;4989;48.772;9.154;2023-05-10T20:57:48;97805.31;;;14.31;100.00
18850;BME280;4989;48.772;9.154;2023-05-10T21:02:51;97806.69;;;14.26;100.00
18850;BME280;4989;48.772;9.154;2023-05-10T21:07:53;97804.38;;;14.15;100.00
18850;BME280;4989;48.772;9.154;2023-05-10T21:12:55;97799.78;;;14.12;100.00
18850;BME280;4989;48.772;9.154;2023-05-10T21:17:58;97794.03;;;14.10;100.00
18850;BME280;4989;48.772;9.154;2023-05-10T21:23:00;97798.25;;;14.02;100.00
18850;BME280;4989;48.772;9.154;2023-05-10T21:28:03;97793.81;;;13.95;100.00
18850;BME280;4989;48.772;9.154;2023-05-10T21:33:05;97786.91;;;13.82;100.00
18850;BME280;4989;48.772;9.154;2023-05-10T21:38:08;97787.81;;;13.79;100.00
18850;BME280;4989;48.772;9.154;2023-05-10T21:43:10;97793.09;;;13.73;100.00
18850;BME280;4989;48.772;9.154;2023-05-10T21:48:13;97792.00;;;13.70;100.00
18850;BME280;4989;48.772;9.154;2023-05-10T21:53:15;97795.06;;;13.72;100.00
18850;BME280;4989;48.772;9.154;2023-05-10T21:58:17;97796.94;;;13.85;100.00
18850;BME280;4989;48.772;9.154;2023-05-10T22:03:20;97796.06;;;13.88;100.00
18850;BME280;4989;48.772;9.154;2023-05-10T22:08:23;97789.97;;;13.84;100.00
18850;BME280;4989;48.772;9.154;2023-05-10T22:13:25;97796.31;;;13.81;100.00
18850;BME280;4989;48.772;9.154;2023-05-10T22:18:28;97796.81;;;13.88;100.00
18850;BME280;4989;48.772;9.154;2023-05-10T22:23:30;97789.66;;;13.82;100.00
18850;BME280;4989;48.772;9.154;2023-05-10T22:28:32;97795.38;;;14.06;100.00
18850;BME280;4989;48.772;9.154;2023-05-10T22:33:34;97794.34;;;14.12;100.00
18850;BME280;4989;48.772;9.154;2023-05-10T22:38:36;97792.50;;;14.09;100.00
18850;BME280;4989;48.772;9.154;2023-05-10T22:43:39;97793.44;;;14.15;100.00
18850;BME280;4989;48.772;9.154;2023-05-10T22:48:41;97790.34;;;13.95;100.00
18850;BME280;4989;48.772;9.154;2023-05-10T22:53:44;97789.44;;;13.98;100.00
18850;BME280;4989;48.772;9.154;2023-05-10T22:58:48;97793.22;;;14.01;100.00
18850;BME280;4989;48.772;9.154;2023-05-10T23:03:50;97798.97;;;13.93;100.00
18850;BME280;4989;48.772;9.154;2023-05-10T23:08:53;97796.69;;;13.92;100.00
18850;BME280;4989;48.772;9.154;2023-05-10T23:13:56;97802.31;;;14.29;100.00
18850;BME280;4989;48.772;9.154;2023-05-10T23:18:58;97803.56;;;14.46;100.00
18850;BME280;4989;48.772;9.154;2023-05-10T23:24:00;97798.50;;;15.12;100.00
18850;BME280;4989;48.772;9.154;2023-05-10T23:29:03;97807.63;;;15.46;100.00
18850;BME280;4989;48.772;9.154;2023-05-10T23:34:05;97806.69;;;15.31;96.58
18850;BME280;4989;48.772;9.154;2023-05-10T23:39:07;97804.44;;;14.93;98.79
18850;BME280;4989;48.772;9.154;2023-05-10T23:44:09;97801.84;;;14.71;100.00
18850;BME280;4989;48.772;9.154;2023-05-10T23:49:11;97803.06;;;15.25;100.00
18850;BME280;4989;48.772;9.154;2023-05-10T23:54:13;97803.34;;;15.54;100.00
18850;BME280;4989;48.772;9.154;2023-05-10T23:59:16;97804.38;;;15.66;96.06
